Time;durP1;ratioP1;P1;durP2;ratioP2;P2;SDS_P1;SDS_P2;PMS_P1;PMS_P2;Temp;Humidity;BMP_temperature;BMP_pressure;BME280_temperature;BME280_humidity;BME280_pressure;Samples;Min_cycle;Max_cycle;Signal;HPM_P1;HPM_P2
2022/09/29 00:00:57;;;;;;;19.80;13.83;;;;;;;16.68;100.00;-18217.97;5114588;28;20187;-63
2022/09/29 00:03:24;;;;;;;19.13;14.83;;;;;;;16.92;100.00;-18223.47;5114931;28;20549;-62
2022/09/29 00:05:54;;;;;;;23.20;16.10;;;;;;;17.06;100.00;-18226.94;5114777;28;20237;-63
2022/09/29 00:08:22;;;;;;;15.63;13.93;;;;;;;17.03;100.00;-18226.22;5114461;28;20222;-64
2022/09/29 00:10:49;;;;;;;21.23;14.50;;;;;;;16.96;100.00;-18224.56;5114773;28;20183;-63
2022/09/29 00:13:16;;;;;;;22.00;15.90;;;;;;;17.28;100.00;-18232.22;5114586;28;20582;-62
2022/09/29 00:15:45;;;;;;;21.40;17.47;;;;;;;17.51;100.00;-18237.59;5114699;28;20690;-63
2022/09/29 00:18:12;;;;;;;19.77;14.30;;;;;;;17.54;100.00;-18238.31;5114127;28;20273;-63
2022/09/29 00:20:39;;;;;;;17.17;12.77;;;;;;;17.52;100.00;-18237.84;5114373;28;20549;-64
2022/09/29 00:23:06;;;;;;;15.73;13.20;;;;;;;17.53;100.00;-18238.06;5114543;28;20492;-63
2022/09/29 00:25:33;;;;;;;20.40;12.60;;;;;;;17.56;100.00;-18238.81;5096397;28;20522;-62
2022/09/29 00:28:01;;;;;;;21.90;13.50;;;;;;;17.59;100.00;-18239.53;5095790;28;20315;-64
2022/09/29 00:30:28;;;;;;;20.33;16.33;;;;;;;17.65;100.00;-18240.84;5114317;28;20187;-63
2022/09/29 00:32:56;;;;;;;18.87;16.80;;;;;;;17.61;100.00;-18239.88;5113615;28;20204;-64
2022/09/29 00:35:23;;;;;;;16.47;13.57;;;;;;;17.80;100.00;-18244.44;5114560;28;20289;-63
2022/09/29 00:37:50;;;;;;;16.40;12.80;;;;;;;17.61;100.00;-18239.88;5114123;28;20188;-64
2022/09/29 00:40:17;;;;;;;17.30;12.50;;;;;;;17.57;100.00;-18239.03;5114206;28;20642;-63
2022/09/29 00:42:44;;;;;;;17.73;12.60;;;;;;;17.42;100.00;-18235.31;5114013;28;20218;-63
2022/09/29 00:45:18;;;;;;;14.77;12.17;;;;;;;17.28;100.00;-18232.09;5113816;28;20191;-63
2022/09/29 00:47:52;;;;;;;13.87;12.03;;;;;;;17.13;100.00;-18228.63;5114007;28;20210;-63
2022/09/29 00:50:24;;;;;;;15.60;12.40;;;;;;;16.72;100.00;-18218.91;5114021;28;20291;-63
2022/09/29 00:52:55;;;;;;;18.97;12.63;;;;;;;16.75;100.00;-18219.63;5113475;28;20203;-63
2022/09/29 00:55:26;;;;;;;13.63;12.30;;;;;;;16.45;100.00;-18212.44;5113659;28;20183;-64
2022/09/29 00:57:57;;;;;;;19.40;12.87;;;;;;;16.65;100.00;-18217.13;5113929;28;20286;-62
2022/09/29 01:00:24;;;;;;;16.00;12.97;;;;;;;16.78;100.00;-18220.34;5113854;28;20183;-63
2022/09/29 01:02:55;;;;;;;18.37;13.67;;;;;;;16.83;100.00;-18221.56;5113391;28;20190;-63
2022/09/29 01:05:29;;;;;;;22.47;13.10;;;;;;;16.64;100.00;-18216.88;5113409;28;20183;-62
2022/09/29 01:07:56;;;;;;;19.23;12.30;;;;;;;16.75;100.00;-18219.63;5113215;28;20240;-63
2022/09/29 01:10:23;;;;;;;20.50;13.00;;;;;;;16.81;100.00;-18220.97;5113658;28;20554;-63
2022/09/29 01:12:50;;;;;;;16.37;13.67;;;;;;;16.74;100.00;-18219.41;5113052;28;20295;-63
2022/09/29 01:15:20;;;;;;;16.73;13.27;;;;;;;16.85;100.00;-18222.03;5113468;28;20183;-63
2022/09/29 01:17:48;;;;;;;15.97;12.67;;;;;;;16.87;100.00;-18222.50;5113224;28;20194;-64
2022/09/29 01:20:19;;;;;;;15.47;13.93;;;;;;;16.61;100.00;-18216.28;5113491;28;20559;-63
2022/09/29 01:23:14;;;;;;;15.03;13.70;;;;;;;16.40;100.00;-18211.25;5113363;28;20327;-64
2022/09/29 01:26:01;;;;;;;17.70;15.83;;;;;;;16.52;100.00;-18214.13;5113311;28;20183;-64
2022/09/29 01:29:02;;;;;;;22.83;15.93;;;;;;;16.55;100.00;-18214.84;5113272;28;20683;-63
2022/09/29 01:31:38;;;;;;;21.40;15.93;;;;;;;16.72;100.00;-18218.91;5113195;28;20197;-63
2022/09/29 01:34:10;;;;;;;21.33;17.37;;;;;;;16.63;100.00;-18216.75;5113070;28;20584;-64
2022/09/29 01:36:48;;;;;;;21.30;19.40;;;;;;;17.04;100.00;-18226.34;5112929;28;20218;-63
2022/09/29 01:39:26;;;;;;;27.03;20.17;;;;;;;17.22;100.00;-18230.78;5112824;28;20183;-63
2022/09/29 01:41:57;;;;;;;23.43;20.43;;;;;;;17.34;100.00;-18233.53;5112969;28;20194;-64
2022/09/29 01:44:29;;;;;;;20.17;17.67;;;;;;;17.36;100.00;-18234.13;5094585;28;20587;-63
2022/09/29 01:47:02;;;;;;;31.87;18.33;;;;;;;17.37;100.00;-18234.25;5112016;28;20183;-63
2022/09/29 01:49:33;;;;;;;24.53;18.57;;;;;;;17.25;100.00;-18231.38;5112587;28;20184;-63
2022/09/29 01:52:03;;;;;;;22.87;18.97;;;;;;;17.57;100.00;-18239.03;5112517;28;20183;-63
2022/09/29 01:54:40;;;;;;;21.67;17.27;;;;;;;17.54;100.00;-18238.19;5112526;28;20207;-63
2022/09/29 01:57:11;;;;;;;22.40;17.17;;;;;;;17.61;100.00;-18239.88;5112437;28;20184;-63
2022/09/29 01:59:47;;;;;;;18.13;16.40;;;;;;;17.72;100.00;-18242.63;5112537;28;20191;-63
2022/09/29 02:02:22;;;;;;;20.97;16.43;;;;;;;17.77;100.00;-18243.81;5112425;28;20661;-63
2022/09/29 02:04:54;;;;;;;17.03;15.43;;;;;;;17.78;100.00;-18244.06;5112193;28;20193;-62
2022/09/29 02:07:26;;;;;;;22.67;17.60;;;;;;;17.78;100.00;-18243.94;5112614;28;20184;-63
2022/09/29 02:10:01;;;;;;;20.43;15.70;;;;;;;17.99;100.00;-18248.97;5112214;28;20192;-64
2022/09/29 02:12:32;;;;;;;17.93;15.87;;;;;;;18.04;100.00;-18250.03;5112284;28;20187;-63
2022/09/29 02:15:03;;;;;;;14.83;13.17;;;;;;;18.10;100.00;-18251.47;5112148;28;20207;-64
2022/09/29 02:17:36;;;;;;;17.03;15.40;;;;;;;18.08;100.00;-18251.00;5112449;28;20634;-64
2022/09/29 02:20:04;;;;;;;16.90;14.90;;;;;;;18.23;100.00;-18254.59;5112060;28;20227;-64
2022/09/29 02:22:31;;;;;;;16.73;14.73;;;;;;;18.17;100.00;-18253.16;5112023;28;20282;-63
2022/09/29 02:24:59;;;;;;;16.43;14.87;;;;;;;18.13;100.00;-18252.19;5112321;28;20184;-64
2022/09/29 02:27:28;;;;;;;14.43;13.23;;;;;;;18.05;100.00;-18250.28;5112057;28;20184;-63
2022/09/29 02:29:57;;;;;;;17.53;14.63;;;;;;;18.19;100.00;-18253.75;5112382;28;20184;-62
2022/09/29 02:32:24;;;;;;;15.10;13.67;;;;;;;18.07;100.00;-18250.75;5111902;28;20195;-63
2022/09/29 02:34:54;;;;;;;15.90;14.50;;;;;;;18.12;100.00;-18251.97;5112269;28;20246;-61
2022/09/29 02:37:32;;;;;;;16.50;14.93;;;;;;;18.21;100.00;-18254.22;5111944;28;20183;-63
2022/09/29 02:40:10;;;;;;;19.80;17.07;;;;;;;18.34;100.00;-18257.22;5112198;28;20642;-63
2022/09/29 02:42:45;;;;;;;21.33;15.63;;;;;;;18.38;100.00;-18258.19;5112155;28;20194;-64
2022/09/29 02:45:29;;;;;;;21.03;14.43;;;;;;;18.47;100.00;-18260.22;5112154;28;20225;-63
2022/09/29 02:48:15;;;;;;;26.80;16.73;;;;;;;18.43;100.00;-18259.25;5112287;28;20187;-64
2022/09/29 02:50:52;;;;;;;30.77;16.60;;;;;;;18.26;100.00;-18255.31;5111839;28;20183;-63
2022/09/29 02:53:37;;;;;;;28.17;16.30;;;;;;;18.10;100.00;-18251.59;5094250;28;20206;-63
2022/09/29 02:56:14;;;;;;;24.50;16.07;;;;;;;18.16;100.00;-18253.03;5111960;28;20179;-64
2022/09/29 02:58:49;;;;;;;26.37;16.13;;;;;;;18.04;100.00;-18250.03;5116161;28;20685;-64
2022/09/29 03:01:16;;;;;;;23.57;15.73;;;;;;;18.07;100.00;-18250.75;5115931;28;20274;-64
2022/09/29 03:03:43;;;;;;;26.37;15.83;;;;;;;18.10;100.00;-18251.47;5115837;28;20266;-63
2022/09/29 03:06:13;;;;;;;29.23;17.50;;;;;;;17.87;100.00;-18246.09;5115837;28;20187;-64
2022/09/29 03:08:40;;;;;;;28.00;15.90;;;;;;;18.05;100.00;-18250.28;5115872;28;20206;-64
2022/09/29 03:11:07;;;;;;;20.87;14.67;;;;;;;18.06;100.00;-18250.53;5115991;28;20184;-64
2022/09/29 03:13:34;;;;;;;16.20;14.47;;;;;;;18.01;100.00;-18249.31;5097687;28;20219;-62
2022/09/29 03:16:01;;;;;;;18.53;16.90;;;;;;;17.94;100.00;-18247.66;5115611;28;20205;-64
2022/09/29 03:18:28;;;;;;;21.43;16.50;;;;;;;17.95;100.00;-18248.00;5115769;28;20239;-64
2022/09/29 03:20:55;;;;;;;27.13;16.87;;;;;;;17.86;100.00;-18245.75;5115917;28;20198;-63
2022/09/29 03:23:24;;;;;;;20.97;17.30;;;;;;;17.77;100.00;-18243.81;5115809;28;20184;-62
2022/09/29 03:25:51;;;;;;;22.07;16.90;;;;;;;17.67;100.00;-18241.44;5115543;28;20193;-64
2022/09/29 03:28:18;;;;;;;22.67;16.20;;;;;;;17.51;100.00;-18237.59;5115552;28;20191;-64
2022/09/29 03:30:45;;;;;;;20.23;15.83;;;;;;;17.46;100.00;-18236.28;5115594;28;20611;-63
2022/09/29 03:33:12;;;;;;;18.70;15.23;;;;;;;17.24;100.00;-18231.13;5115732;28;20630;-64
2022/09/29 03:35:39;;;;;;;18.53;15.33;;;;;;;17.32;100.00;-18233.06;5116080;28;20503;-63
2022/09/29 03:38:05;;;;;;;22.37;14.87;;;;;;;17.13;100.00;-18228.50;5097921;28;20176;-63
2022/09/29 03:40:34;;;;;;;20.97;15.70;;;;;;;17.15;100.00;-18228.97;5115982;28;20548;-62
2022/09/29 03:43:01;;;;;;;30.30;17.20;;;;;;;17.13;100.00;-18228.50;5097844;28;20188;-63
2022/09/29 03:45:28;;;;;;;29.63;17.00;;;;;;;17.22;100.00;-18230.66;5097431;28;20190;-63
2022/09/29 03:47:55;;;;;;;25.67;15.90;;;;;;;17.40;100.00;-18234.84;5115587;28;20190;-63
2022/09/29 03:50:21;;;;;;;28.33;16.53;;;;;;;17.39;100.00;-18234.72;5115480;28;20188;-63
2022/09/29 03:52:48;;;;;;;20.20;16.70;;;;;;;17.34;100.00;-18233.53;5115526;28;20191;-63
2022/09/29 03:55:15;;;;;;;41.80;19.73;;;;;;;17.30;100.00;-18232.56;5115588;28;20204;-63
2022/09/29 03:57:44;;;;;;;28.17;18.53;;;;;;;17.47;100.00;-18236.53;5115916;28;20206;-64
2022/09/29 04:00:12;;;;;;;32.30;18.40;;;;;;;17.52;100.00;-18237.84;5097549;28;20648;-63
2022/09/29 04:02:39;;;;;;;66.33;22.70;;;;;;;17.52;100.00;-18237.72;5115440;28;20193;-63
2022/09/29 04:05:06;;;;;;;50.90;21.73;;;;;;;17.63;100.00;-18240.34;5115216;28;20183;-64
2022/09/29 04:07:33;;;;;;;71.67;23.90;;;;;;;17.69;100.00;-18241.91;5114653;28;20183;-63
2022/09/29 04:10:00;;;;;;;74.27;23.53;;;;;;;17.71;100.00;-18242.38;5114454;28;20557;-63
2022/09/29 04:12:27;;;;;;;81.47;25.07;;;;;;;17.75;100.00;-18243.34;5115244;28;20297;-63
2022/09/29 04:14:56;;;;;;;99.07;28.13;;;;;;;17.78;100.00;-18244.06;5114973;28;20207;-63
2022/09/29 04:17:23;;;;;;;108.97;31.63;;;;;;;17.83;100.00;-18245.16;5114710;28;20244;-63
2022/09/29 04:19:52;;;;;;;148.93;33.63;;;;;;;17.89;100.00;-18246.59;5096295;28;20733;-63
2022/09/29 04:22:19;;;;;;;154.30;34.43;;;;;;;18.02;100.00;-18249.56;5114764;28;20292;-63
2022/09/29 04:24:47;;;;;;;169.33;35.30;;;;;;;18.08;100.00;-18251.13;5114771;28;20588;-65
2022/09/29 04:27:14;;;;;;;268.00;36.93;;;;;;;18.15;100.00;-18252.69;5114143;28;20187;-63
2022/09/29 04:29:41;;;;;;;316.33;41.33;;;;;;;18.10;100.00;-18251.47;5114074;28;20274;-64
2022/09/29 04:32:09;;;;;;;252.73;41.07;;;;;;;18.13;100.00;-18252.31;5114229;28;20179;-63
2022/09/29 04:34:36;;;;;;;318.03;41.77;;;;;;;18.17;100.00;-18253.16;5113824;28;20685;-64
2022/09/29 04:37:03;;;;;;;312.70;41.63;;;;;;;17.88;100.00;-18246.34;5114129;28;20195;-63
2022/09/29 04:39:30;;;;;;;279.47;38.57;;;;;;;18.30;100.00;-18256.25;5114159;28;20535;-63
2022/09/29 04:41:57;;;;;;;163.93;34.07;;;;;;;18.25;100.00;-18255.06;5113764;28;20634;-64
2022/09/29 04:44:24;;;;;;;239.17;37.17;;;;;;;18.38;100.00;-18258.19;5114244;28;20570;-64
2022/09/29 04:46:52;;;;;;;136.07;32.10;;;;;;;18.55;100.00;-18262.25;5113853;28;20626;-63
2022/09/29 04:49:20;;;;;;;110.67;31.47;;;;;;;18.59;100.00;-18263.19;5113601;28;20191;-62
2022/09/29 04:51:47;;;;;;;74.60;27.63;;;;;;;18.62;100.00;-18263.91;5113812;28;20188;-64
2022/09/29 04:54:15;;;;;;;78.07;27.07;;;;;;;18.65;100.00;-18264.63;5113945;28;20214;-63
2022/09/29 04:56:41;;;;;;;121.03;30.23;;;;;;;18.59;100.00;-18263.19;5113701;28;20553;-63
2022/09/29 04:59:09;;;;;;;110.33;27.80;;;;;;;18.76;100.00;-18267.16;5113886;28;20188;-63
2022/09/29 05:01:36;;;;;;;139.13;28.70;;;;;;;18.68;100.00;-18265.34;5113519;28;20262;-63
2022/09/29 05:04:03;;;;;;;81.63;28.00;;;;;;;18.74;100.00;-18266.53;5113736;28;20191;-63
2022/09/29 05:06:31;;;;;;;86.27;26.37;;;;;;;18.80;100.00;-18267.97;5113603;28;20194;-64
2022/09/29 05:08:59;;;;;;;74.07;24.70;;;;;;;18.91;100.00;-18270.59;5113649;28;20183;-52
2022/09/29 05:11:26;;;;;;;69.70;26.60;;;;;;;18.91;100.00;-18270.59;5113767;28;20523;-53
2022/09/29 05:13:53;;;;;;;75.53;29.90;;;;;;;18.90;100.00;-18270.38;5113608;28;20206;-53
2022/09/29 05:16:20;;;;;;;67.73;28.83;;;;;;;18.99;100.00;-18272.53;5113729;28;20586;-53
2022/09/29 05:18:47;;;;;;;66.27;23.23;;;;;;;18.93;100.00;-18271.22;5113530;28;20223;-56
2022/09/29 05:21:14;;;;;;;44.17;22.97;;;;;;;19.07;100.00;-18274.56;5095662;28;20194;-54
2022/09/29 05:23:42;;;;;;;77.90;25.77;;;;;;;19.08;100.00;-18274.78;5113172;28;20183;-51
2022/09/29 05:26:10;;;;;;;57.53;22.90;;;;;;;19.23;100.00;-18278.13;5113127;28;20199;-58
2022/09/29 05:28:38;;;;;;;43.90;20.97;;;;;;;19.47;100.00;-18284.00;5112908;28;20186;-64
2022/09/29 05:31:07;;;;;;;38.13;18.83;;;;;;;19.64;100.00;-18287.81;5113146;28;20619;-63
2022/09/29 05:33:36;;;;;;;46.73;16.93;;;;;;;19.79;100.00;-18291.38;5112821;28;20294;-64
2022/09/29 05:36:07;;;;;;;27.93;15.47;;;;;;;20.06;100.00;-18297.81;5113059;28;20276;-64
2022/09/29 05:38:35;;;;;;;17.73;15.83;;;;;;;20.25;100.00;-18302.34;5113194;28;20184;-64
2022/09/29 05:41:06;;;;;;;33.60;18.43;;;;;;;20.32;100.00;-18303.91;5112647;28;20214;-63
2022/09/29 05:43:33;;;;;;;41.27;18.23;;;;;;;20.43;100.00;-18306.53;5112647;28;20187;-64
2022/09/29 05:46:00;;;;;;;24.03;16.37;;;;;;;20.58;100.00;-18310.09;5112386;28;20187;-63
2022/09/29 05:48:29;;;;;;;29.70;16.67;;;;;;;20.76;100.00;-18314.28;5112684;28;20562;-64
2022/09/29 05:50:56;;;;;;;27.10;17.00;;;;;;;21.14;100.00;-18323.31;5112374;28;20195;-63
2022/09/29 05:53:23;;;;;;;40.07;18.07;;;;;;;21.50;100.00;-18331.66;5112220;28;20194;-65
2022/09/29 05:55:50;;;;;;;39.03;16.83;;;;;;;21.41;100.00;-18329.75;5112641;28;20208;-64
2022/09/29 05:58:19;;;;;;;30.95;16.02;;;;;;;22.11;100.00;-18344.28;5112613;28;20188;-64
2022/09/29 06:00:46;;;;;;;40.97;19.20;;;;;;;22.49;100.00;-11220.75;5112512;28;20296;-64
2022/09/29 06:03:13;;;;;;;25.70;15.02;;;;;;;22.97;100.00;-1793.66;5112081;28;20211;-60
2022/09/29 06:05:40;;;;;;;68.15;16.73;;;;;;;23.27;100.00;5711.38;5112632;28;20543;-60
2022/09/29 06:08:07;;;;;;;35.63;16.30;;;;;;;23.63;100.00;17831.72;5112449;28;20199;-60
2022/09/29 06:10:34;;;;;;;35.15;15.73;;;;;;;23.62;100.00;22098.47;5112383;28;20187;-61
2022/09/29 06:13:02;;;;;;;35.65;15.15;;;;;;;24.45;100.00;35974.28;5112454;28;20183;-64
2022/09/29 06:15:30;;;;;;;22.92;14.15;;;;;;;25.05;100.00;67229.41;5111957;28;20711;-65
2022/09/29 06:17:59;;;;;;;23.67;14.90;;;;;;;25.62;100.00;109968.34;5111682;28;20220;-64
2022/09/29 06:20:27;;;;;;;31.30;13.63;;;;;;;26.30;100.00;152654.88;5112001;28;20187;-64
2022/09/29 06:22:54;;;;;;;30.85;14.35;;;;;;;26.69;100.00;152753.34;5111914;28;20215;-64
2022/09/29 06:25:21;;;;;;;19.77;11.93;;;;;;;27.14;100.00;152868.50;5112232;28;20695;-65
2022/09/29 06:48:02;;;;;;;12.98;9.95;;;;;;;27.85;100.00;153047.66;5091496;28;20171;-64
2022/09/29 06:50:28;;;;;;;14.65;9.98;;;;;;;28.18;100.00;153130.88;5091262;28;20274;-62
2022/09/29 06:52:58;;;;;;;25.25;11.68;;;;;;;28.32;100.00;153166.75;5091558;28;20180;-64
2022/09/29 06:55:25;;;;;;;31.77;14.15;;;;;;;28.27;100.00;153152.63;5091225;28;20211;-63
2022/09/29 06:57:52;;;;;;;30.20;13.02;;;;;;;28.56;100.00;153228.19;5091346;28;20209;-64
2022/09/29 07:00:19;;;;;;;36.92;12.73;;;;;;;28.46;100.00;153201.31;5091596;28;20190;-64
2022/09/29 07:02:46;;;;;;;19.98;11.90;;;;;;;28.14;100.00;153121.94;5091207;28;20194;-64
2022/09/29 07:05:19;;;;;;;21.13;11.55;;;;;;;28.54;100.00;153223.09;5091375;28;20200;-63
2022/09/29 07:07:48;;;;;;;24.52;11.63;;;;;;;28.98;100.00;153334.50;5091253;28;20260;-64
2022/09/29 07:10:15;;;;;;;32.63;11.80;;;;;;;29.39;100.00;153438.31;5090974;28;20199;-64
2022/09/29 07:12:45;;;;;;;6.82;5.78;;;;;;;29.64;100.00;153499.81;5091085;28;20184;-64
2022/09/29 07:15:13;;;;;;;5.65;5.28;;;;;;;29.94;100.00;153576.75;5091281;28;20239;-64
2022/09/29 07:17:43;;;;;;;3.92;3.33;;;;;;;30.05;100.00;153603.63;5091183;28;20195;-63
2022/09/29 07:20:10;;;;;;;3.58;3.10;;;;;;;30.29;100.00;153665.19;5090959;28;20271;-64
2022/09/29 07:22:38;;;;;;;2.80;2.60;;;;;;;30.26;100.00;153658.72;5091636;28;20191;-63
2022/09/29 07:25:06;;;;;;;6.20;5.15;;;;;;;30.53;100.00;153725.44;5091543;28;20643;-63
2022/09/29 07:27:34;;;;;;;3.03;2.47;;;;;;;30.62;100.00;153748.53;5091190;28;20191;-61
2022/09/29 07:30:01;;;;;;;2.72;2.53;;;;;;;30.63;100.00;153751.09;5091399;28;20507;-60
2022/09/29 07:32:31;;;;;;;3.22;3.03;;;;;;;30.76;100.00;153784.44;5073445;28;20200;-64
2022/09/29 07:34:59;;;;;;;3.00;2.65;;;;;;;30.16;100.00;153631.84;5091120;28;20231;-63
2022/09/29 07:37:26;;;;;;;6.25;2.47;;;;;;;30.01;100.00;153594.66;5091367;28;20257;-63
2022/09/29 07:39:55;;;;;;;3.58;3.33;;;;;;;29.67;100.00;153507.47;5091080;28;20191;-63
2022/09/29 07:42:22;;;;;;;3.58;2.40;;;;;;;29.92;100.00;153572.88;5090946;28;20202;-64
2022/09/29 07:44:49;;;;;;;7.60;2.67;;;;;;;29.87;100.00;153560.06;5094063;28;20283;-64
2022/09/29 07:47:18;;;;;;;9.27;3.40;;;;;;;29.92;100.00;153571.59;5094543;28;20184;-62
2022/09/29 07:49:45;;;;;;;5.57;3.70;;;;;;;29.36;100.00;153430.66;5094603;28;20184;-63
2022/09/29 07:52:14;;;;;;;20.65;6.20;;;;;;;29.40;100.00;153440.91;5094627;28;20192;-63
2022/09/29 07:54:41;;;;;;;18.80;5.30;;;;;;;29.11;100.00;153366.50;5094255;28;20195;-64
2022/09/29 07:57:10;;;;;;;6.97;4.53;;;;;;;29.29;100.00;153411.41;5095292;28;20184;-64
2022/09/29 07:59:37;;;;;;;7.47;3.85;;;;;;;29.43;100.00;153448.56;5094488;28;20195;-63
2022/09/29 08:02:04;;;;;;;9.55;4.97;;;;;;;29.45;100.00;153453.69;5094679;28;20618;-64
2022/09/29 08:04:31;;;;;;;11.30;4.93;;;;;;;29.21;100.00;153392.16;5094463;28;20511;-64
2022/09/29 08:06:58;;;;;;;5.45;4.20;;;;;;;29.71;100.00;153519.00;5094068;28;20257;-63
2022/09/29 08:09:25;;;;;;;7.20;3.97;;;;;;;29.34;100.00;153425.50;5094392;28;20550;-63
2022/09/29 08:11:52;;;;;;;4.75;4.30;;;;;;;29.46;100.00;153456.25;5076078;28;20192;-63
2022/09/29 08:14:21;;;;;;;6.82;6.10;;;;;;;29.89;100.00;153565.19;5094272;28;20684;-63
2022/09/29 08:16:48;;;;;;;8.38;4.65;;;;;;;30.55;100.00;153730.59;5093874;28;20220;-65
2022/09/29 08:19:16;;;;;;;4.18;2.90;;;;;;;30.69;100.00;153766.47;5093730;28;20230;-64
2022/09/29 08:21:42;;;;;;;9.35;3.83;;;;;;;31.16;99.17;153887.03;5094029;28;20267;-63
2022/09/29 08:24:10;;;;;;;4.00;3.70;;;;;;;31.82;97.64;154053.84;5094039;28;20535;-64
2022/09/29 08:26:39;;;;;;;6.35;4.70;;;;;;;31.81;98.52;154051.28;5093850;28;20190;-64
2022/09/29 08:29:06;;;;;;;5.45;4.15;;;;;;;31.90;95.38;154073.09;5093991;28;20616;-62
2022/09/29 08:31:36;;;;;;;4.22;3.90;;;;;;;32.14;94.42;154135.97;5093915;28;20202;-64
2022/09/29 08:34:02;;;;;;;4.82;3.15;;;;;;;32.02;91.63;154105.16;5093624;28;20192;-63
2022/09/29 08:36:32;;;;;;;3.25;2.88;;;;;;;31.28;95.41;153917.81;5093420;28;20224;-63
2022/09/29 08:38:59;;;;;;;3.38;2.90;;;;;;;30.19;100.00;153639.53;5093386;28;20191;-64
2022/09/29 08:41:40;;;;;;;3.10;2.50;;;;;;;30.20;100.00;153643.38;5094261;28;20630;-63
2022/09/29 08:44:15;;;;;;;2.38;2.17;;;;;;;30.24;99.55;153653.63;5093788;28;20199;-64
2022/09/29 08:46:47;;;;;;;3.85;2.65;;;;;;;30.62;97.54;153749.81;5093747;28;20236;-64
2022/09/29 08:49:19;;;;;;;3.85;2.53;;;;;;;31.32;92.31;153925.53;5093314;28;20626;-63
2022/09/29 08:51:50;;;;;;;2.53;2.33;;;;;;;30.64;93.73;153753.69;5093541;28;20188;-68
2022/09/29 08:54:24;;;;;;;3.55;2.33;;;;;;;31.28;92.59;153917.81;5092998;28;20188;-68
2022/09/29 08:56:51;;;;;;;4.45;3.28;;;;;;;31.66;90.49;154014.06;5093685;28;20211;-68
2022/09/29 08:59:18;;;;;;;3.90;2.22;;;;;;;31.47;91.28;153965.28;5093667;28;20189;-70
2022/09/29 09:02:03;;;;;;;2.53;2.33;;;;;;;32.90;83.70;154328.53;5093902;28;20210;-69
2022/09/29 09:04:44;;;;;;;2.75;2.47;;;;;;;33.08;82.87;154374.75;5093535;28;20264;-70
2022/09/29 09:07:18;;;;;;;5.22;2.60;;;;;;;31.35;91.51;153933.22;5094954;28;20180;-68
2022/09/29 09:09:58;;;;;;;2.75;2.55;;;;;;;32.20;89.96;154148.81;5094048;28;20187;-63
2022/09/29 09:12:40;;;;;;;3.65;2.65;;;;;;;32.50;86.32;154227.13;5093026;28;20183;-60
2022/09/29 09:15:32;;;;;;;5.32;2.70;;;;;;;32.12;86.01;154130.84;5093368;28;20233;-61
2022/09/29 09:18:21;;;;;;;3.60;2.40;;;;;;;32.26;89.48;154164.19;5092904;28;20562;-64
2022/09/29 09:20:56;;;;;;;6.63;2.45;;;;;;;32.79;87.32;154300.31;5093055;28;20275;-65
2022/09/29 09:23:33;;;;;;;2.33;2.13;;;;;;;33.22;82.18;154408.19;5093360;28;20565;-64
2022/09/29 09:26:02;;;;;;;5.40;2.75;;;;;;;33.32;83.90;154433.84;5092974;28;20271;-65
2022/09/29 09:28:34;;;;;;;6.90;2.65;;;;;;;33.36;82.61;154444.09;5092841;28;20201;-64
2022/09/29 09:31:06;;;;;;;3.38;2.58;;;;;;;32.79;85.58;154300.31;5092795;28;20192;-64
2022/09/29 09:33:46;;;;;;;2.50;2.28;;;;;;;32.28;88.30;154170.66;5092933;28;20299;-65
2022/09/29 09:36:17;;;;;;;4.20;2.60;;;;;;;32.20;91.94;154148.81;5092845;28;20303;-64
2022/09/29 09:38:50;;;;;;;5.15;3.25;;;;;;;32.06;94.90;154114.13;5092777;28;20188;-64
2022/09/29 09:41:20;;;;;;;4.35;2.83;;;;;;;31.59;100.00;153994.81;5092958;28;20189;-65
2022/09/29 09:43:51;;;;;;;4.20;3.08;;;;;;;31.42;100.00;153951.16;5075012;28;20192;-64
2022/09/29 09:46:23;;;;;;;4.55;3.10;;;;;;;30.83;100.00;153802.38;5093433;28;20227;-64
2022/09/29 09:49:02;;;;;;;4.63;2.85;;;;;;;30.60;100.00;153744.66;5093046;28;20259;-65
2022/09/29 09:51:41;;;;;;;3.13;2.58;;;;;;;29.89;100.00;153565.19;5092996;28;20645;-63
2022/09/29 09:54:14;;;;;;;4.00;3.20;;;;;;;29.84;100.00;153551.03;5092217;28;20187;-63
2022/09/29 09:57:00;;;;;;;3.40;3.15;;;;;;;30.33;100.00;153676.72;5092412;28;20635;-63
2022/09/29 09:59:42;;;;;;;4.05;3.58;;;;;;;30.54;100.00;153729.31;5092681;28;20196;-63
2022/09/29 10:02:18;;;;;;;4.57;3.42;;;;;;;31.27;100.00;153915.22;5092033;28;20190;-64
2022/09/29 10:04:51;;;;;;;3.40;3.20;;;;;;;30.48;100.00;153712.63;5073886;28;20286;-64
2022/09/29 10:07:18;;;;;;;7.63;3.50;;;;;;;30.28;100.00;153663.88;5091349;28;20191;-65
2022/09/29 10:09:45;;;;;;;3.53;3.33;;;;;;;30.69;100.00;153766.47;5091979;28;20191;-64
2022/09/29 10:12:16;;;;;;;5.18;3.38;;;;;;;30.36;100.00;153683.09;5091967;28;20233;-63
2022/09/29 10:14:48;;;;;;;13.35;11.65;;;;;;;30.15;100.00;153629.28;5092151;28;20725;-63
2022/09/29 10:17:19;;;;;;;3.72;3.50;;;;;;;29.50;100.00;153466.50;5091921;28;20217;-64
2022/09/29 10:19:59;;;;;;;4.25;3.95;;;;;;;29.35;100.00;153428.09;5091974;28;20227;-63
2022/09/29 10:22:30;;;;;;;3.75;3.55;;;;;;;27.74;100.00;153018.22;5092692;28;20187;-67
2022/09/29 10:25:08;;;;;;;8.65;4.15;;;;;;;27.55;100.00;152972.16;5092177;28;20188;-68
2022/09/29 10:27:40;;;;;;;7.90;4.65;;;;;;;27.13;100.00;152865.94;5092047;28;20187;-69
2022/09/29 10:30:18;;;;;;;5.70;4.05;;;;;;;26.56;100.00;152721.38;5092500;28;20184;-67
2022/09/29 10:32:46;;;;;;;6.72;5.10;;;;;;;26.59;100.00;152727.75;5092238;28;20566;-68
2022/09/29 10:35:23;;;;;;;5.05;4.70;;;;;;;26.44;100.00;152689.41;5091891;28;20717;-68
2022/09/29 10:37:59;;;;;;;6.00;4.43;;;;;;;26.19;100.00;152627.97;5092094;28;20190;-68
2022/09/29 10:40:26;;;;;;;7.18;5.10;;;;;;;26.18;100.00;152624.16;5092175;28;20180;-68
2022/09/29 10:42:53;;;;;;;5.57;4.55;;;;;;;26.42;100.00;152685.56;5092118;28;20249;-68
2022/09/29 10:45:22;;;;;;;7.18;4.47;;;;;;;26.27;100.00;152647.16;5092174;28;20191;-68
2022/09/29 10:48:08;;;;;;;5.05;4.53;;;;;;;26.61;100.00;152734.13;5092518;28;20283;-68
2022/09/29 10:50:48;;;;;;;11.55;5.10;;;;;;;26.54;100.00;152714.94;5092092;28;20630;-67
2022/09/29 10:53:23;;;;;;;4.65;4.25;;;;;;;26.81;100.00;152785.31;5092959;28;20180;-67
2022/09/29 10:55:53;;;;;;;5.95;4.28;;;;;;;26.56;100.00;152721.38;5092483;28;20203;-69
2022/09/29 10:58:24;;;;;;;8.38;4.85;;;;;;;26.59;100.00;152729.03;5092521;28;20180;-67
2022/09/29 11:01:06;;;;;;;9.45;5.15;;;;;;;26.50;100.00;152706.00;5091868;28;20188;-68
2022/09/29 11:03:35;;;;;;;7.95;5.00;;;;;;;26.08;100.00;152599.84;5074191;28;20698;-68
2022/09/29 11:06:07;;;;;;;8.57;5.18;;;;;;;26.51;100.00;152708.59;5093677;28;20612;-64
2022/09/29 11:08:55;;;;;;;5.90;4.53;;;;;;;26.13;100.00;152612.66;5091245;28;20191;-63
2022/09/29 11:11:26;;;;;;;5.30;4.78;;;;;;;25.76;100.00;152519.31;5091739;28;20609;-65
2022/09/29 11:13:54;;;;;;;6.18;5.05;;;;;;;25.69;100.00;152500.16;5091781;28;20192;-65
2022/09/29 11:16:27;;;;;;;8.15;5.45;;;;;;;25.45;100.00;152440.06;5091712;28;20212;-66
2022/09/29 11:18:57;;;;;;;4.80;4.28;;;;;;;25.61;100.00;152479.69;5094265;28;20240;-65
2022/09/29 11:22:03;;;;;;;7.35;4.53;;;;;;;25.55;100.00;152464.34;5095954;28;20287;-65
2022/09/29 11:25:08;;;;;;;7.60;4.40;;;;;;;24.99;100.00;152323.78;5095555;28;20194;-65
2022/09/29 11:27:46;;;;;;;6.68;4.88;;;;;;;24.96;100.00;152316.09;5094847;28;20202;-65
2022/09/29 11:30:19;;;;;;;5.15;4.53;;;;;;;24.88;100.00;152296.94;5095187;28;20231;-65
2022/09/29 11:33:04;;;;;;;4.78;4.38;;;;;;;24.83;100.00;152284.13;5095127;28;20195;-65
2022/09/29 11:35:45;;;;;;;5.53;5.03;;;;;;;24.53;100.00;150968.16;5095020;28;20283;-66
2022/09/29 11:38:29;;;;;;;5.68;4.60;;;;;;;24.28;100.00;122567.22;5095300;28;20669;-65
2022/09/29 11:41:19;;;;;;;8.05;4.93;;;;;;;24.05;100.00;84816.94;5095404;28;20191;-63
2022/09/29 11:43:53;;;;;;;8.43;5.20;;;;;;;23.97;100.00;65110.13;5094890;28;20184;-65
2022/09/29 11:46:43;;;;;;;5.80;5.25;;;;;;;24.02;100.00;64449.97;5094982;28;20190;-65